Terminal Aerodrome Forecast
Issued by NWS

Home | Current Version | Previous Version | Text Only | Print | Product List | Glossary On
Versions: 1 2 3 4 5 6 7 8 9 10 11 12 13 14 15 16 17 18 19 20 21 22 23 24 25 26 27 28 29 30 31 32
314
FTUS43 KGRB 061610 AAA
TAFRHI
TAF AMD
KRHI 061610Z 0616/0712 20009KT 4SM BR OVC008
      TEMPO 0616/0619 1SM -SN OVC004
     FM061900 22010G16KT 6SM -SHSN OVC013
     FM062200 24012G19KT P6SM OVC017
     FM070400 24015G22KT P6SM OVC020
     FM070800 25014G22KT P6SM OVC018
     FM071100 25013G23KT P6SM BKN016=

USA.gov is the U.S. government's official web portal to all federal, state and local government web resources and services.